Friday, April 19, 2019, 8:18 PM EDT
Back to Local

KMHT, Manchester Airport

Location: Manchester, NH, United States Lat: 42.933
Local Time: 8:18 PM EDT ( 0:18 GMT) Lon: -71.433
Time Zone: US/Eastern Elev: 232 ft

Show me the last for .
Show Decoded

2019-04-19 19:53 METAR KMHT 192353Z 19014G18KT 10SM SCT030 SCT100 BKN200 OVC250 22/15 A2975 RMK
                 AO2 SLP085 T02170150 10256 20217 53016 =
2019-04-19 18:53 METAR KMHT 192253Z 19015G24KT 10SM FEW040 BKN200 OVC250 23/14 A2973 RMK AO2
                 SLP079 T02280144 =
2019-04-19 17:53 METAR KMHT 192153Z 19014G20KT 10SM FEW040 BKN200 BKN250 24/14 A2971 RMK AO2 PK
                 WND 21026/2113 SLP072 T02390144 =
2019-04-19 16:53 METAR KMHT 192053Z 20010KT 10SM SCT050 BKN065 BKN250 25/13 A2970 RMK AO2 SLP070
                 T02500133 55005 =
2019-04-19 15:53 METAR KMHT 191953Z 20011G19KT 10SM BKN055 BKN070 BKN180 BKN250 25/14 A2969 RMK
                 AO2 SLP066 T02500139 =
2019-04-19 14:53 METAR KMHT 191853Z 23015G22KT 10SM BKN048 BKN250 26/13 A2970 RMK AO2 PK WND
                 21026/1831 SLP069 T02560133 =
2019-04-19 13:53 METAR KMHT 191753Z 23010G28KT 10SM BKN042 BKN055 BKN250 23/13 A2972 RMK AO2 PK
                 WND 23028/1751 SLP075 T02330133 10239 20106 58013 =
2019-04-19 12:53 METAR KMHT 191653Z 21018G23KT 10SM BKN034 BKN200 23/13 A2973 RMK AO2 PK WND
                 23027/1619 SLP081 T02330133 =
2019-04-19 11:53 METAR KMHT 191553Z 21018G27KT 10SM BKN035 OVC043 22/14 A2974 RMK AO2 PK WND
                 21029/1529 SLP084 T02220139 =
2019-04-19 10:53 METAR KMHT 191453Z 21008KT 180V240 10SM OVC036 21/14 A2976 RMK AO2 SLP088
                 T02110139 56008 =
2019-04-19 09:53 METAR KMHT 191353Z 22013G21KT 10SM OVC030 19/14 A2976 RMK AO2 PK WND 19027/1322
                 SLP090 T01940139 =
2019-04-19 09:32 METAR KMHT 191332Z 22013G21KT 10SM OVC030 19/14 A2975 RMK AO2 PK WND 19027/1322
                 T01890139 =
2019-04-19 08:53 METAR KMHT 191253Z 20006KT 10SM OVC026 16/13 A2976 RMK AO2 SLP091 T01560133 =
2019-04-19 07:53 METAR KMHT 191153Z 00000KT 8SM BCFG BR BKN023 BKN150 10/09 A2978 RMK AO2 SLP098
                 T01000094 10100 20072 53002 =
2019-04-19 06:58 METAR KMHT 191058Z 00000KT 5SM BCFG BR BKN024 BKN150 08/07 A2977 RMK AO2
                 T00780072 =
2019-04-19 06:53 METAR KMHT 191053Z 00000KT 4SM BCFG BR FEW003 SCT024 BKN150 08/07 A2977 RMK AO2
                 SLP096 T00780072 =
2019-04-19 06:41 METAR KMHT 191041Z 34003KT 4SM BCFG BR FEW003 SCT024 BKN150 08/07 A2977 RMK AO2
                 T00780067 =
2019-04-19 06:02 METAR KMHT 191002Z 36003KT 1 1/4SM R35/3000VP6000FT BCFG BR BKN003 BKN150 07/06
                 A2977 RMK AO2 TWR VIS 10 T00720061 =
2019-04-19 05:56 METAR KMHT 190956Z 33004KT 1 3/4SM BR SCT004 07/07 A2977 RMK AO2 TWR VIS 10
                 T00720067 =
2019-04-19 05:53 METAR KMHT 190953Z 32005KT 7SM BCFG FEW002 BKN150 08/07 A2977 RMK AO2 SLP095 VIS
                 NW-N 1 T00780067 =
2019-04-19 05:30 METAR KMHT 190930Z 00000KT 3SM BR SCT002 BKN150 08/07 A2976 RMK AO2 TWR VIS 10
                 T00780072 =
2019-04-19 05:10 METAR KMHT 190910Z 15003KT 1/2SM R35/1800V2600FT FG VV002 08/07 A2976 RMK AO2
                 T00780072 =
2019-04-19 05:08 METAR KMHT 190908Z 14003KT 1/2SM R35/1800V2200FT FG VV002 08/07 A2976 RMK AO2
                 T00780072 =
2019-04-19 04:53 METAR KMHT 190853Z 00000KT 1/4SM R35/1800V3000FT FG VV003 08/08 A2977 RMK AO2
                 SFC VIS 1/2 SLP096 T00780078 56016 =
2019-04-19 03:53 METAR KMHT 190753Z 34004KT 1/4SM R35/1600V2400FT FG VV002 08/07 A2977 RMK AO2
                 SLP096 T00780072 =
2019-04-19 03:28 METAR KMHT 190728Z 34003KT 1/4SM R35/2200VP6000FT FG VV004 08/07 A2977 RMK AO2
                 T00780072 =
2019-04-19 03:06 METAR KMHT 190706Z 00000KT 1/2SM R35/4500VP6000FT FG VV004 08/08 A2978 RMK AO2
                 T00830078 =
2019-04-19 02:53 METAR KMHT 190653Z 14004KT 1/4SM R35/2000V3000FT FG VV002 08/08 A2978 RMK AO2
                 TWR VIS 1/2 SLP099 T00830078 =
2019-04-19 01:53 METAR KMHT 190553Z 00000KT 1/2SM R35/P6000FT BR OVC003 07/07 A2982 RMK AO2 SFC
                 VIS 1 1/2 RAB0454E04 SLP112 P0000 60000 T00720072 10078 20072 58021 =
2019-04-19 00:53 METAR KMHT 190453Z 00000KT 1/2SM R35/4000V4500FT FG VV003 08/07 A2986 RMK AO2
                 RAE0355 SLP125 P0000 T00780072 401110033 =
2019-04-19 00:26 METAR KMHT 190426Z 00000KT 1/2SM R35/4000V6000FT FG OVC002 07/07 A2987 RMK AO2
                 RAE0355 P0000 T00720067 =
2019-04-18 23:53 METAR KMHT 190353Z 00000KT 1SM R35/6000VP6000FT -RA BR OVC003 08/07 A2988 RMK
                 AO2 SFC VIS 1 1/2 DZE11RAB39 SLP134 P0000 T00780067 =
2019-04-18 23:16 METAR KMHT 190316Z 00000KT 1SM R35/P6000FT BR OVC003 07/07 A2988 RMK AO2 DZE11
                 P0000 T00720067 =
2019-04-18 22:53 METAR KMHT 190253Z 00000KT 2SM -DZ BR OVC004 07/07 A2988 RMK AO2 TWR VIS 3
                 SLP135 P0000 60000 T00720067 58035 =
2019-04-18 21:53 METAR KMHT 190153Z 00000KT 2SM -DZ BR OVC003 08/07 A2993 RMK AO2 TWR VIS 3 DZB50
                 SLP150 P0000 T00780067 =
2019-04-18 20:53 METAR KMHT 190053Z 11003KT 2 1/2SM BR OVC006 08/07 A2997 RMK AO2 TWR VIS 3
                 DZB24E51 SLP163 P0000 T00780067 =
2019-04-18 20:24 METAR KMHT 190024Z 00000KT 2SM -DZ BR OVC005 07/07 A2996 RMK AO2 TWR VIS 3 DZB24
                 P0000 T00720067 =

Support USWX by starting your Amazon purchase here.